This is the latest recevied weather packets stored in our database for station/object KA7RLM. If no packets are shown the sender has not sent any weather packets the latest 10 day(s).
| Time | Temp. | Humidity | Pressure | Rain* | Wind** | Luminosity | Snow |
|---|---|---|---|---|---|---|---|
| 1777493420 | 16.67° C | 58% | 1024.1 hPa | 0 mm | - | - | - |
| 1777491618 | 16.67° C | 60% | 1024.3 hPa | 0 mm | - | - | - |
| 1777491022 | 16.67° C | 60% | 1024.3 hPa | 0 mm | - | - | - |
| 1777488616 | 16.11° C | 61% | 1024.6 hPa | 0 mm | - | - | - |
| 1777486846 | 15.56° C | 61% | 1024.8 hPa | 0 mm | - | - | - |
| 1777477828 | 12.78° C | 75% | 1025.7 hPa | 0 mm | - | - | - |
| 1777476615 | 11.11° C | 84% | 1025.8 hPa | 0 mm | - | - | - |
| 1777467618 | 8.89° C | 88% | 1025.3 hPa | 0 mm | - | - | - |
| 1777456222 | 9.44° C | 82% | 1025.1 hPa | 0 mm | - | - | - |
| 1777455068 | 9.44° C | 81% | 1025.1 hPa | 0 mm | - | - | - |
| 1777453822 | 10° C | 80% | 1025.3 hPa | 0 mm | - | - | - |
| 1777451451 | 10° C | 79% | 1025.3 hPa | 0 mm | - | - | - |
| 1777445448 | 10.56° C | 76% | 1024.8 hPa | 0 mm | - | - | - |
| 1777443621 | 11.11° C | 76% | 1024.8 hPa | 0 mm | - | - | - |
| 1777443024 | 11.11° C | 77% | 1024.8 hPa | 0 mm | - | - | - |
| 1777439420 | 11.11° C | 77% | 1024.6 hPa | 0 mm | - | - | - |
| 1777438818 | 11.11° C | 77% | 1024.4 hPa | 0 mm | - | - | - |
| 1777436425 | 11.11° C | 77% | 1024.4 hPa | 0 mm | - | - | - |
| 1777434020 | 11.67° C | 74% | 1024.1 hPa | 0 mm | - | - | - |
| 1777429223 | 12.22° C | 69% | 1023.8 hPa | 0 mm | - | - | - |
| 1777428049 | 12.78° C | 68% | 1023.8 hPa | 0 mm | - | - | - |
| 1777427426 | 12.78° C | 67% | 1023.8 hPa | 0 mm | - | - | - |
| 1777426816 | 12.78° C | 67% | 1023.8 hPa | 0 mm | - | - | - |
| 1777423226 | 13.89° C | 64% | 1023.6 hPa | 0 mm | - | - | - |
| 1777422032 | 14.44° C | 58% | 1023.5 hPa | 0 mm | - | - | - |
* Rain latest hour (hover to see other rain measurements)
** Current wind speed in m/s (hover to see current wind gust speed)